Time;durP1;ratioP1;P1;durP2;ratioP2;P2;SDS_P1;SDS_P2;PMS_P1;PMS_P2;Temp;Humidity;BMP_temperature;BMP_pressure;BME280_temperature;BME280_humidity;BME280_pressure;Samples;Min_cycle;Max_cycle;Signal;HPM_P1;HPM_P2
2022/10/12 00:00:15;;;;;;;;;;;22.70;56.10;;;;;;1519404;77;1130;-57
2022/10/12 00:02:16;;;;;;;;;;;22.70;56.10;;;;;;1550590;74;762;-57
2022/10/12 00:04:18;;;;;;;;;;;22.70;56.00;;;;;;1545358;75;834;-57
2022/10/12 00:06:23;;;;;;;;;;;22.70;56.10;;;;;;1556251;75;1188;-56
2022/10/12 00:08:25;;;;;;;;;;;22.70;56.20;;;;;;1549114;74;1551;-56
2022/10/12 00:10:27;;;;;;;;;;;22.70;56.00;;;;;;1555546;75;790;-57
2022/10/12 00:12:29;;;;;;;;;;;22.70;56.10;;;;;;1551778;75;759;-56
2022/10/12 00:14:31;;;;;;;;;;;22.50;56.00;;;;;;1558645;74;1923;-57
2022/10/12 00:16:33;;;;;;;;;;;22.70;56.00;;;;;;1566213;74;1081;-56
2022/10/12 00:18:35;;;;;;;;;;;22.70;56.10;;;;;;1568897;74;728;-56
2022/10/12 00:20:37;;;;;;;;;;;22.80;56.10;;;;;;1547904;75;807;-56
2022/10/12 00:22:39;;;;;;;;;;;22.70;56.10;;;;;;1542805;74;1550;-56
2022/10/12 00:24:41;;;;;;;;;;;22.70;56.10;;;;;;1551897;74;1147;-56
2022/10/12 00:26:43;;;;;;;;;;;22.80;56.20;;;;;;1559178;74;720;-55
2022/10/12 00:28:45;;;;;;;;;;;22.70;56.10;;;;;;1565133;75;736;-56
2022/10/12 00:30:47;;;;;;;;;;;22.70;56.20;;;;;;1523946;76;664;-56
2022/10/12 00:32:49;;;;;;;;;;;22.70;56.00;;;;;;1560518;75;749;-56
2022/10/12 00:34:51;;;;;;;;;;;22.70;56.10;;;;;;1547134;74;1941;-56
2022/10/12 00:36:52;;;;;;;;;;;22.70;56.00;;;;;;1569085;74;1552;-56
2022/10/12 00:38:54;;;;;;;;;;;22.70;56.00;;;;;;1529003;76;1170;-56
2022/10/12 00:40:56;;;;;;;;;;;22.70;55.90;;;;;;1545464;74;913;-56
2022/10/12 00:42:58;;;;;;;;;;;22.80;55.90;;;;;;1570637;74;727;-57
2022/10/12 00:45:00;;;;;;;;;;;22.70;55.90;;;;;;1558150;75;1172;-56
2022/10/12 00:47:07;;;;;;;;;;;22.70;55.80;;;;;;1563368;75;789;-57
2022/10/12 00:49:16;;;;;;;;;;;22.70;55.80;;;;;;1562174;75;813;-56
2022/10/12 00:51:18;;;;;;;;;;;22.70;56.00;;;;;;1546434;74;1573;-57
2022/10/12 00:53:21;;;;;;;;;;;22.70;56.00;;;;;;1557427;75;858;-56
2022/10/12 00:55:23;;;;;;;;;;;22.70;56.00;;;;;;1560598;75;1944;-57
2022/10/12 00:57:24;;;;;;;;;;;22.70;56.00;;;;;;1567076;74;793;-54
2022/10/12 00:59:28;;;;;;;;;;;22.70;56.00;;;;;;1557817;75;739;-52
2022/10/12 01:01:29;;;;;;;;;;;22.70;56.00;;;;;;1576742;74;1098;-56
2022/10/12 01:03:31;;;;;;;;;;;22.70;56.00;;;;;;1535994;76;1222;-56
2022/10/12 01:05:33;;;;;;;;;;;22.70;56.00;;;;;;1579107;74;1576;-50
2022/10/12 01:07:35;;;;;;;;;;;22.80;56.00;;;;;;1581990;74;728;-52
2022/10/12 01:09:37;;;;;;;;;;;22.70;56.00;;;;;;1582483;74;784;-56
2022/10/12 01:11:39;;;;;;;;;;;22.70;56.10;;;;;;1582799;74;719;-56
2022/10/12 01:13:41;;;;;;;;;;;22.70;56.10;;;;;;1583341;74;782;-54
2022/10/12 01:15:44;;;;;;;;;;;22.80;56.00;;;;;;1584052;74;1950;-56
2022/10/12 01:17:54;;;;;;;;;;;22.80;55.80;;;;;;1573586;74;1588;-54
2022/10/12 01:20:00;;;;;;;;;;;22.80;55.80;;;;;;1565222;74;1692;-55
2022/10/12 01:22:03;;;;;;;;;;;22.70;55.80;;;;;;1582563;74;1840;-55
2022/10/12 01:24:25;;;;;;;;;;;22.80;55.70;;;;;;1579868;74;1807;-56
2022/10/12 01:26:45;;;;;;;;;;;22.80;55.60;;;;;;1582405;74;1100;-55
2022/10/12 01:28:51;;;;;;;;;;;22.80;55.70;;;;;;1581014;74;687;-55
2022/10/12 01:30:55;;;;;;;;;;;22.80;55.80;;;;;;1579852;74;855;-55
2022/10/12 01:33:08;;;;;;;;;;;22.70;55.90;;;;;;1584344;74;1626;-55
2022/10/12 01:35:17;;;;;;;;;;;22.80;55.90;;;;;;1587508;74;1927;-53
2022/10/12 01:37:29;;;;;;;;;;;22.70;56.00;;;;;;1572865;74;797;-55
2022/10/12 01:39:33;;;;;;;;;;;22.70;56.20;;;;;;1585503;74;2078;-55
2022/10/12 01:41:39;;;;;;;;;;;22.70;56.20;;;;;;1578630;74;1322;-54
2022/10/12 01:43:42;;;;;;;;;;;22.60;56.20;;;;;;1587621;74;941;-56
2022/10/12 01:45:44;;;;;;;;;;;22.70;56.30;;;;;;1567195;74;1171;-55
2022/10/12 01:47:51;;;;;;;;;;;22.80;56.30;;;;;;1577411;74;1763;-56
2022/10/12 01:49:50;;;;;;;;;;;22.70;56.10;;;;;;1582618;74;1572;-52
2022/10/12 01:51:54;;;;;;;;;;;22.70;56.10;;;;;;1568931;74;737;-55
2022/10/12 01:53:58;;;;;;;;;;;22.80;56.10;;;;;;1582468;74;717;-50
2022/10/12 01:56:01;;;;;;;;;;;22.80;56.10;;;;;;1583781;74;1937;-55
2022/10/12 01:58:05;;;;;;;;;;;22.70;56.20;;;;;;1584893;74;692;-55
2022/10/12 02:00:07;;;;;;;;;;;22.80;56.20;;;;;;1583628;74;1553;-55
2022/10/12 02:02:13;;;;;;;;;;;22.80;56.00;;;;;;1587858;74;1082;-54
2022/10/12 02:04:20;;;;;;;;;;;22.80;55.90;;;;;;1588106;74;763;-55
2022/10/12 02:06:22;;;;;;;;;;;22.90;56.00;;;;;;1591411;74;1140;-51
2022/10/12 02:08:25;;;;;;;;;;;22.90;56.10;;;;;;1591868;74;786;-53
2022/10/12 02:10:28;;;;;;;;;;;22.80;56.00;;;;;;1580238;74;783;-55
2022/10/12 02:12:30;;;;;;;;;;;22.80;56.10;;;;;;1580178;73;721;-55
2022/10/12 02:14:37;;;;;;;;;;;22.80;56.00;;;;;;1593536;74;1333;-55
2022/10/12 02:16:40;;;;;;;;;;;22.80;56.00;;;;;;1578256;74;1923;-52
2022/10/12 02:18:42;;;;;;;;;;;22.80;56.00;;;;;;1581266;74;1853;-55
2022/10/12 02:20:46;;;;;;;;;;;22.80;56.00;;;;;;1582124;74;710;-54
2022/10/12 02:22:48;;;;;;;;;;;22.80;55.90;;;;;;1585538;74;733;-55
2022/10/12 02:24:50;;;;;;;;;;;22.70;56.00;;;;;;1590755;74;1143;-55
2022/10/12 02:26:52;;;;;;;;;;;22.80;56.00;;;;;;1576047;74;674;-55
2022/10/12 02:28:54;;;;;;;;;;;22.70;56.00;;;;;;1592979;74;1533;-55
2022/10/12 02:31:04;;;;;;;;;;;22.80;56.00;;;;;;1584714;74;717;-52
2022/10/12 02:33:07;;;;;;;;;;;22.80;56.00;;;;;;1581702;74;1811;-55
2022/10/12 02:35:10;;;;;;;;;;;22.80;56.00;;;;;;1576141;74;1152;-55
2022/10/12 02:37:20;;;;;;;;;;;22.80;56.00;;;;;;1585763;74;1926;-52
2022/10/12 02:39:32;;;;;;;;;;;22.80;56.10;;;;;;1589058;74;1798;-55
2022/10/12 02:41:36;;;;;;;;;;;22.90;56.00;;;;;;1562089;75;970;-56
2022/10/12 02:43:44;;;;;;;;;;;22.90;55.90;;;;;;1586006;74;1638;-55
2022/10/12 02:45:46;;;;;;;;;;;22.90;55.90;;;;;;1582520;74;1130;-55
2022/10/12 02:47:48;;;;;;;;;;;22.80;55.70;;;;;;1581755;74;692;-55
2022/10/12 02:49:49;;;;;;;;;;;22.80;55.90;;;;;;1581097;74;764;-54
2022/10/12 02:51:51;;;;;;;;;;;22.80;56.00;;;;;;1575196;74;689;-51
2022/10/12 02:53:53;;;;;;;;;;;22.80;56.00;;;;;;1591976;74;664;-55
2022/10/12 02:55:57;;;;;;;;;;;22.70;56.20;;;;;;1583815;74;1953;-55
2022/10/12 02:57:59;;;;;;;;;;;22.70;56.20;;;;;;1592042;74;1894;-55
2022/10/12 03:00:00;;;;;;;;;;;22.70;56.30;;;;;;1588567;74;739;-51
2022/10/12 03:02:02;;;;;;;;;;;22.70;56.40;;;;;;1585171;74;1134;-54
2022/10/12 03:04:04;;;;;;;;;;;22.70;56.50;;;;;;1588859;74;790;-53
2022/10/12 03:06:07;;;;;;;;;;;22.60;56.40;;;;;;1584546;74;1183;-55
2022/10/12 03:08:08;;;;;;;;;;;22.60;56.50;;;;;;1584787;74;782;-55
2022/10/12 03:10:10;;;;;;;;;;;22.60;56.60;;;;;;1589219;74;772;-55
2022/10/12 03:12:12;;;;;;;;;;;22.60;56.50;;;;;;1591238;74;734;-56
2022/10/12 03:14:15;;;;;;;;;;;22.60;56.50;;;;;;1582855;74;707;-55
2022/10/12 03:16:17;;;;;;;;;;;22.60;56.50;;;;;;1593190;74;1941;-55
2022/10/12 03:18:19;;;;;;;;;;;22.60;56.50;;;;;;1582626;74;807;-55
2022/10/12 03:20:21;;;;;;;;;;;22.60;56.60;;;;;;1586172;74;753;-55
2022/10/12 03:22:23;;;;;;;;;;;22.60;56.60;;;;;;1586093;74;815;-55
2022/10/12 03:24:24;;;;;;;;;;;22.60;56.80;;;;;;1595832;74;1579;-56
2022/10/12 03:26:26;;;;;;;;;;;22.50;56.80;;;;;;1589266;74;1107;-55
2022/10/12 03:28:28;;;;;;;;;;;22.60;56.80;;;;;;1596273;74;776;-52
2022/10/12 03:30:30;;;;;;;;;;;22.50;56.90;;;;;;1589969;74;975;-56
2022/10/12 03:32:32;;;;;;;;;;;22.50;56.90;;;;;;1581245;74;849;-56
2022/10/12 03:34:34;;;;;;;;;;;22.50;56.90;;;;;;1578662;74;727;-56
2022/10/12 03:36:36;;;;;;;;;;;22.50;56.90;;;;;;1582449;74;1961;-56
2022/10/12 03:38:38;;;;;;;;;;;22.50;57.10;;;;;;1591239;74;1521;-51
2022/10/12 03:40:39;;;;;;;;;;;22.50;57.10;;;;;;1591676;74;734;-54
2022/10/12 03:42:41;;;;;;;;;;;22.50;57.10;;;;;;1593236;74;783;-51
2022/10/12 03:44:43;;;;;;;;;;;22.50;57.10;;;;;;1597064;74;1125;-55
2022/10/12 03:46:45;;;;;;;;;;;22.50;57.20;;;;;;1583433;74;727;-56
2022/10/12 03:48:47;;;;;;;;;;;22.50;57.30;;;;;;1591809;73;682;-54
2022/10/12 03:50:49;;;;;;;;;;;22.50;57.30;;;;;;1584452;73;850;-56
2022/10/12 03:52:51;;;;;;;;;;;22.50;57.40;;;;;;1582573;74;1547;-56
2022/10/12 03:54:53;;;;;;;;;;;22.50;57.40;;;;;;1597038;73;1150;-56
2022/10/12 03:56:55;;;;;;;;;;;22.60;57.10;;;;;;1585851;73;1950;-56
2022/10/12 03:58:57;;;;;;;;;;;22.70;57.10;;;;;;1597506;73;723;-53
2022/10/12 04:00:58;;;;;;;;;;;22.70;57.00;;;;;;1590346;73;700;-57
2022/10/12 04:03:05;;;;;;;;;;;22.70;56.90;;;;;;1588459;73;978;-57
2022/10/12 04:05:04;;;;;;;;;;;22.80;56.80;;;;;;1582549;73;1210;-57
2022/10/12 04:07:06;;;;;;;;;;;22.70;56.80;;;;;;1581573;73;1497;-55
2022/10/12 04:09:08;;;;;;;;;;;22.70;56.90;;;;;;1582905;73;901;-53
2022/10/12 04:11:10;;;;;;;;;;;22.70;56.80;;;;;;1584945;73;813;-56
2022/10/12 04:13:12;;;;;;;;;;;22.80;56.90;;;;;;1587685;73;711;-54
2022/10/12 04:15:16;;;;;;;;;;;22.80;56.80;;;;;;1585370;73;1143;-53
2022/10/12 04:17:17;;;;;;;;;;;22.80;56.80;;;;;;1581326;73;1927;-57
2022/10/12 04:19:19;;;;;;;;;;;22.70;56.60;;;;;;1591911;73;781;-57
2022/10/12 04:21:21;;;;;;;;;;;22.80;56.40;;;;;;1584984;73;1532;-57
2022/10/12 04:23:23;;;;;;;;;;;22.80;56.40;;;;;;1590973;73;718;-56
2022/10/12 04:25:25;;;;;;;;;;;22.80;56.30;;;;;;1580507;73;1139;-55
2022/10/12 04:27:27;;;;;;;;;;;22.80;56.20;;;;;;1580523;73;782;-52
2022/10/12 04:29:29;;;;;;;;;;;22.90;56.20;;;;;;1578457;73;769;-57
2022/10/12 04:31:31;;;;;;;;;;;23.00;56.10;;;;;;1588768;73;742;-57
2022/10/12 04:33:32;;;;;;;;;;;23.00;55.80;;;;;;1581116;73;723;-56
2022/10/12 04:35:34;;;;;;;;;;;23.00;55.70;;;;;;1587194;73;1534;-52
2022/10/12 04:37:36;;;;;;;;;;;23.00;55.60;;;;;;1586565;73;1945;-56
2022/10/12 04:39:38;;;;;;;;;;;23.10;55.70;;;;;;1579966;73;687;-56
2022/10/12 04:41:40;;;;;;;;;;;23.10;55.60;;;;;;1584767;73;788;-53
2022/10/12 04:43:42;;;;;;;;;;;23.10;55.50;;;;;;1588386;73;794;-56
2022/10/12 04:45:44;;;;;;;;;;;23.10;55.50;;;;;;1582078;73;1108;-54
2022/10/12 04:47:46;;;;;;;;;;;23.10;55.40;;;;;;1591049;73;880;-56
2022/10/12 04:49:47;;;;;;;;;;;23.00;55.50;;;;;;1580984;73;1528;-56
2022/10/12 04:51:49;;;;;;;;;;;23.00;55.70;;;;;;1581881;73;713;-52
2022/10/12 04:53:51;;;;;;;;;;;23.00;55.70;;;;;;1581791;73;709;-56
2022/10/12 04:55:53;;;;;;;;;;;23.00;55.60;;;;;;1580970;73;1175;-55
2022/10/12 04:57:55;;;;;;;;;;;23.00;55.70;;;;;;1592577;73;1927;-57
2022/10/12 04:59:57;;;;;;;;;;;22.90;55.90;;;;;;1573659;73;742;-57
2022/10/12 05:01:59;;;;;;;;;;;22.90;56.50;;;;;;1579408;73;745;-56
2022/10/12 05:04:03;;;;;;;;;;;22.80;56.60;;;;;;1585313;74;1517;-57
2022/10/12 05:06:05;;;;;;;;;;;22.80;56.90;;;;;;1587965;73;1191;-57
2022/10/12 05:08:07;;;;;;;;;;;22.70;56.90;;;;;;1587446;73;742;-58
2022/10/12 05:10:09;;;;;;;;;;;22.70;56.90;;;;;;1574929;73;722;-56
2022/10/12 05:12:11;;;;;;;;;;;22.90;56.70;;;;;;1579490;73;762;-57
2022/10/12 05:14:13;;;;;;;;;;;23.00;56.20;;;;;;1588960;73;744;-57
2022/10/12 05:16:15;;;;;;;;;;;23.10;56.00;;;;;;1586090;73;1130;-58
2022/10/12 05:18:17;;;;;;;;;;;23.10;55.70;;;;;;1580322;73;1554;-58
2022/10/12 05:20:18;;;;;;;;;;;23.10;55.50;;;;;;1583086;74;730;-56
2022/10/12 05:22:20;;;;;;;;;;;23.10;55.40;;;;;;1576524;74;742;-57
2022/10/12 05:24:22;;;;;;;;;;;23.10;55.30;;;;;;1572927;73;773;-59
2022/10/12 05:26:24;;;;;;;;;;;23.20;55.20;;;;;;1585469;74;1119;-58
2022/10/12 05:28:26;;;;;;;;;;;23.10;55.20;;;;;;1580278;73;728;-59
2022/10/12 05:30:28;;;;;;;;;;;23.10;55.20;;;;;;1586410;73;718;-59
2022/10/12 05:32:30;;;;;;;;;;;23.00;55.20;;;;;;1583284;73;1475;-58
2022/10/12 05:34:32;;;;;;;;;;;22.90;55.60;;;;;;1586304;73;680;-60
2022/10/12 05:36:34;;;;;;;;;;;22.90;56.00;;;;;;1585230;73;1933;-59
2022/10/12 05:38:36;;;;;;;;;;;22.90;56.20;;;;;;1572164;73;705;-58
2022/10/12 05:40:38;;;;;;;;;;;22.90;55.90;;;;;;1592185;73;732;-58
2022/10/12 05:42:40;;;;;;;;;;;23.00;55.50;;;;;;1585424;73;718;-58
2022/10/12 05:44:41;;;;;;;;;;;23.10;55.40;;;;;;1592068;73;1152;-58
2022/10/12 05:46:43;;;;;;;;;;;23.10;55.40;;;;;;1573973;73;1551;-60
2022/10/12 05:48:45;;;;;;;;;;;23.00;55.30;;;;;;1573472;73;707;-58
2022/10/12 05:50:47;;;;;;;;;;;23.00;55.30;;;;;;1582638;73;765;-59
2022/10/12 05:52:49;;;;;;;;;;;23.10;55.30;;;;;;1580391;73;744;-60
2022/10/12 05:54:51;;;;;;;;;;;23.00;55.30;;;;;;1578012;73;1139;-58
2022/10/12 05:56:53;;;;;;;;;;;23.00;55.30;;;;;;1584558;73;1907;-58
2022/10/12 05:58:55;;;;;;;;;;;23.00;55.40;;;;;;1589162;73;760;-57
2022/10/12 06:01:10;;;;;;;;;;;23.00;55.40;;;;;;1569669;73;1709;-57
2022/10/12 06:03:12;;;;;;;;;;;22.90;55.50;;;;;;1575620;73;1087;-57
2022/10/12 06:05:14;;;;;;;;;;;22.90;55.40;;;;;;1575734;73;1221;-58
2022/10/12 06:07:16;;;;;;;;;;;22.90;55.50;;;;;;1580918;73;765;-58
2022/10/12 06:09:18;;;;;;;;;;;22.90;55.50;;;;;;1584168;73;928;-58
2022/10/12 06:11:20;;;;;;;;;;;22.90;55.50;;;;;;1577694;73;784;-58
2022/10/12 06:13:22;;;;;;;;;;;22.80;55.40;;;;;;1578386;73;1547;-58
2022/10/12 06:15:23;;;;;;;;;;;22.90;55.60;;;;;;1579213;73;1134;-57
2022/10/12 06:17:25;;;;;;;;;;;22.80;55.40;;;;;;1579981;73;1934;-57
2022/10/12 06:19:27;;;;;;;;;;;22.80;55.50;;;;;;1585112;73;724;-58
2022/10/12 06:21:29;;;;;;;;;;;22.80;55.50;;;;;;1578295;73;744;-57
2022/10/12 06:23:31;;;;;;;;;;;22.90;55.50;;;;;;1563883;74;702;-59
2022/10/12 06:25:33;;;;;;;;;;;22.80;55.40;;;;;;1581070;73;1137;-58
2022/10/12 06:27:35;;;;;;;;;;;22.80;55.40;;;;;;1589265;73;1519;-59
2022/10/12 06:29:37;;;;;;;;;;;22.80;55.40;;;;;;1574726;73;775;-58
2022/10/12 06:31:39;;;;;;;;;;;22.90;55.50;;;;;;1577262;73;684;-58
2022/10/12 06:33:41;;;;;;;;;;;22.70;55.40;;;;;;1578251;73;761;-58
2022/10/12 06:35:42;;;;;;;;;;;22.80;55.40;;;;;;1566767;74;1148;-59
2022/10/12 06:37:50;;;;;;;;;;;22.80;55.40;;;;;;1566706;73;1937;-58
2022/10/12 06:39:52;;;;;;;;;;;22.80;55.40;;;;;;1579346;73;758;-58
2022/10/12 06:41:54;;;;;;;;;;;22.80;55.40;;;;;;1586767;73;1582;-56
2022/10/12 06:43:56;;;;;;;;;;;22.80;55.40;;;;;;1581221;73;798;-59
2022/10/12 06:46:01;;;;;;;;;;;22.80;55.30;;;;;;1572985;73;1161;-59
2022/10/12 06:48:03;;;;;;;;;;;22.80;55.30;;;;;;1588858;73;780;-58
2022/10/12 06:50:05;;;;;;;;;;;22.80;55.40;;;;;;1585854;73;782;-58
2022/10/12 06:52:07;;;;;;;;;;;22.70;55.30;;;;;;1573305;73;784;-57
2022/10/12 06:54:09;;;;;;;;;;;22.70;55.30;;;;;;1570898;73;769;-58
2022/10/12 06:56:11;;;;;;;;;;;22.70;55.30;;;;;;1587315;74;1577;-58
2022/10/12 06:58:13;;;;;;;;;;;22.80;55.20;;;;;;1586833;73;1929;-58
2022/10/12 07:00:15;;;;;;;;;;;22.80;55.30;;;;;;1577210;73;836;-60
2022/10/12 07:02:17;;;;;;;;;;;22.80;55.30;;;;;;1585913;73;680;-58
2022/10/12 07:04:19;;;;;;;;;;;22.80;55.30;;;;;;1586084;73;1113;-58
2022/10/12 07:06:21;;;;;;;;;;;22.80;55.20;;;;;;1584166;73;1175;-60
2022/10/12 07:08:23;;;;;;;;;;;22.80;55.10;;;;;;1585360;73;654;-58
2022/10/12 07:10:24;;;;;;;;;;;22.80;55.10;;;;;;1568755;73;1514;-58
2022/10/12 07:12:26;;;;;;;;;;;22.90;55.20;;;;;;1578663;73;821;-59
2022/10/12 07:14:28;;;;;;;;;;;22.80;55.00;;;;;;1575496;73;733;-58
2022/10/12 07:16:30;;;;;;;;;;;22.90;55.10;;;;;;1584744;73;1104;-59
2022/10/12 07:18:32;;;;;;;;;;;22.90;55.10;;;;;;1583883;73;1917;-57
2022/10/12 07:20:34;;;;;;;;;;;22.90;55.00;;;;;;1584300;73;728;-57
2022/10/12 07:22:36;;;;;;;;;;;22.90;54.90;;;;;;1590901;74;778;-57
2022/10/12 07:24:38;;;;;;;;;;;22.90;55.00;;;;;;1587335;73;1516;-57
2022/10/12 07:26:40;;;;;;;;;;;22.80;54.90;;;;;;1579364;73;705;-57
2022/10/12 07:28:42;;;;;;;;;;;22.70;55.00;;;;;;1579100;74;829;-57
2022/10/12 07:30:44;;;;;;;;;;;22.70;55.20;;;;;;1580684;74;846;-57
2022/10/12 07:32:46;;;;;;;;;;;22.70;55.20;;;;;;1586502;73;787;-57
2022/10/12 07:34:48;;;;;;;;;;;22.70;55.30;;;;;;1584947;73;1136;-57
2022/10/12 07:36:50;;;;;;;;;;;22.60;55.30;;;;;;1578809;73;970;-56
2022/10/12 07:38:52;;;;;;;;;;;22.60;55.40;;;;;;1573773;73;1923;-56
2022/10/12 07:40:53;;;;;;;;;;;22.70;55.50;;;;;;1574590;73;739;-57
2022/10/12 07:42:55;;;;;;;;;;;22.70;55.50;;;;;;1594312;73;732;-57
2022/10/12 07:44:57;;;;;;;;;;;22.60;55.50;;;;;;1593200;73;1097;-58
2022/10/12 07:46:59;;;;;;;;;;;22.70;55.60;;;;;;1577003;73;707;-57
2022/10/12 07:49:01;;;;;;;;;;;22.60;55.50;;;;;;1588539;73;797;-57
2022/10/12 07:51:04;;;;;;;;;;;22.60;55.50;;;;;;1579365;73;697;-57
2022/10/12 07:53:06;;;;;;;;;;;22.60;55.50;;;;;;1576260;73;1266;-57
2022/10/12 07:55:08;;;;;;;;;;;22.60;55.60;;;;;;1588305;73;1179;-57
2022/10/12 07:57:10;;;;;;;;;;;22.60;55.60;;;;;;1581218;73;771;-57
2022/10/12 07:59:12;;;;;;;;;;;22.60;55.60;;;;;;1584245;73;1926;-58
2022/10/12 08:01:14;;;;;;;;;;;22.60;55.60;;;;;;1577875;73;671;-56
2022/10/12 08:03:15;;;;;;;;;;;22.60;55.60;;;;;;1578183;73;701;-56
2022/10/12 08:05:20;;;;;;;;;;;22.60;55.50;;;;;;1566812;73;1436;-57
2022/10/12 08:07:21;;;;;;;;;;;22.50;55.70;;;;;;1570977;73;1593;-57
2022/10/12 08:09:23;;;;;;;;;;;22.50;55.60;;;;;;1581417;73;799;-57
2022/10/12 08:11:25;;;;;;;;;;;22.60;55.60;;;;;;1584763;73;911;-56
2022/10/12 08:13:26;;;;;;;;;;;22.60;55.60;;;;;;1589873;73;790;-57
2022/10/12 08:15:28;;;;;;;;;;;22.60;55.50;;;;;;1583027;73;1155;-57
2022/10/12 08:17:30;;;;;;;;;;;22.60;55.60;;;;;;1587120;73;1941;-57
2022/10/12 08:19:34;;;;;;;;;;;22.60;55.50;;;;;;1584673;73;760;-57
2022/10/12 08:21:36;;;;;;;;;;;22.50;55.60;;;;;;1580344;73;1790;-57
2022/10/12 08:23:37;;;;;;;;;;;22.50;55.60;;;;;;1594970;73;784;-57
2022/10/12 08:25:39;;;;;;;;;;;22.60;55.50;;;;;;1582003;73;1125;-58
2022/10/12 08:27:41;;;;;;;;;;;22.60;55.50;;;;;;1599432;73;689;-56
2022/10/12 08:29:43;;;;;;;;;;;22.50;55.60;;;;;;1588491;73;763;-56
2022/10/12 08:31:48;;;;;;;;;;;22.60;55.60;;;;;;1584069;73;835;-56
2022/10/12 08:33:48;;;;;;;;;;;22.50;55.70;;;;;;1585904;73;1715;-56
2022/10/12 08:35:50;;;;;;;;;;;22.60;55.60;;;;;;1594848;73;1119;-59
2022/10/12 08:37:53;;;;;;;;;;;22.60;55.60;;;;;;1594178;73;1909;-57
2022/10/12 08:39:55;;;;;;;;;;;22.50;55.50;;;;;;1594070;73;751;-56
2022/10/12 08:42:05;;;;;;;;;;;22.60;55.70;;;;;;1596655;73;738;-57
2022/10/12 08:44:08;;;;;;;;;;;22.50;55.70;;;;;;1577365;73;679;-57
2022/10/12 08:46:10;;;;;;;;;;;22.50;55.70;;;;;;1583182;73;1446;-53
2022/10/12 08:48:17;;;;;;;;;;;22.40;55.60;;;;;;1575846;73;1447;-51
2022/10/12 08:50:35;;;;;;;;;;;22.40;55.70;;;;;;1578025;73;1794;-55
2022/10/12 08:52:39;;;;;;;;;;;22.40;55.70;;;;;;1574296;74;703;-54
2022/10/12 08:54:41;;;;;;;;;;;22.40;55.80;;;;;;1578111;73;1929;-54
2022/10/12 08:56:43;;;;;;;;;;;22.40;55.80;;;;;;1585155;73;699;-56
2022/10/12 08:58:45;;;;;;;;;;;22.40;55.80;;;;;;1597142;73;1908;-55
2022/10/12 09:00:48;;;;;;;;;;;22.40;55.80;;;;;;1580365;73;709;-57
2022/10/12 09:02:55;;;;;;;;;;;22.30;55.80;;;;;;1585333;73;1624;-56
2022/10/12 09:04:58;;;;;;;;;;;22.30;55.90;;;;;;1577136;73;1916;-52
2022/10/12 09:07:19;;;;;;;;;;;22.30;55.90;;;;;;1581713;73;700;-53
2022/10/12 09:09:34;;;;;;;;;;;22.30;55.90;;;;;;1588871;73;755;-55
2022/10/12 09:11:38;;;;;;;;;;;22.40;55.70;;;;;;1589864;73;1929;-55
2022/10/12 09:13:44;;;;;;;;;;;22.30;55.80;;;;;;1587281;73;1964;-58
2022/10/12 09:15:54;;;;;;;;;;;22.40;55.90;;;;;;1590580;73;1928;-57
2022/10/12 09:17:56;;;;;;;;;;;22.30;55.90;;;;;;1586349;73;1930;-56
2022/10/12 09:20:02;;;;;;;;;;;22.40;55.80;;;;;;1592012;73;709;-57
2022/10/12 09:22:04;;;;;;;;;;;22.30;55.70;;;;;;1589394;73;729;-55
2022/10/12 09:24:06;;;;;;;;;;;22.40;55.70;;;;;;1595443;73;785;-56
2022/10/12 09:26:12;;;;;;;;;;;22.40;55.60;;;;;;1582451;73;1145;-56
2022/10/12 09:28:18;;;;;;;;;;;22.40;55.50;;;;;;1570887;73;2124;-56
2022/10/12 09:30:20;;;;;;;;;;;22.40;55.20;;;;;;1576261;74;2059;-54
2022/10/12 09:32:25;;;;;;;;;;;22.50;55.30;;;;;;1593155;73;985;-55
2022/10/12 09:34:27;;;;;;;;;;;22.50;55.20;;;;;;1582278;73;753;-55
2022/10/12 09:36:30;;;;;;;;;;;22.40;55.00;;;;;;1589749;73;1116;-54
2022/10/12 09:38:32;;;;;;;;;;;22.40;54.90;;;;;;1590505;73;1921;-58
2022/10/12 09:40:34;;;;;;;;;;;22.40;54.60;;;;;;1577400;73;696;-57
2022/10/12 09:42:36;;;;;;;;;;;22.40;54.50;;;;;;1595413;74;779;-58
2022/10/12 09:44:44;;;;;;;;;;;22.40;54.30;;;;;;1563273;74;1583;-56
2022/10/12 09:46:48;;;;;;;;;;;22.30;54.30;;;;;;1546674;75;753;-58
2022/10/12 09:48:56;;;;;;;;;;;22.30;54.20;;;;;;1515465;76;1817;-55
2022/10/12 09:50:58;;;;;;;;;;;22.40;54.10;;;;;;1533566;76;813;-56
2022/10/12 09:53:00;;;;;;;;;;;22.30;54.00;;;;;;1543785;75;696;-56
2022/10/12 09:55:17;;;;;;;;;;;22.40;54.10;;;;;;1532555;76;1104;-56
2022/10/12 09:57:22;;;;;;;;;;;22.50;54.00;;;;;;1589877;74;701;-57
2022/10/12 09:59:28;;;;;;;;;;;22.40;53.90;;;;;;1581965;73;1922;-56
2022/10/12 10:01:30;;;;;;;;;;;22.40;53.60;;;;;;1596624;73;808;-57
2022/10/12 10:03:32;;;;;;;;;;;22.40;53.80;;;;;;1580536;73;735;-51
2022/10/12 10:05:35;;;;;;;;;;;22.50;53.80;;;;;;1577274;73;1180;-57
2022/10/12 10:07:37;;;;;;;;;;;22.50;53.80;;;;;;1583155;73;692;-53
2022/10/12 10:09:39;;;;;;;;;;;22.50;53.70;;;;;;1584938;73;802;-55
2022/10/12 10:11:40;;;;;;;;;;;22.50;53.80;;;;;;1575081;73;740;-55
2022/10/12 10:13:49;;;;;;;;;;;22.50;53.60;;;;;;1584258;73;1548;-54
2022/10/12 10:15:52;;;;;;;;;;;22.40;53.50;;;;;;1582364;73;1173;-54
2022/10/12 10:17:55;;;;;;;;;;;22.40;53.50;;;;;;1588375;73;732;-52
2022/10/12 10:19:57;;;;;;;;;;;22.30;53.60;;;;;;1586380;73;1941;-53
2022/10/12 10:22:00;;;;;;;;;;;22.20;53.40;;;;;;1576247;73;676;-54
2022/10/12 10:24:02;;;;;;;;;;;22.30;53.60;;;;;;1579130;74;918;-52
2022/10/12 10:26:05;;;;;;;;;;;22.20;53.50;;;;;;1590743;73;1104;-52
2022/10/12 10:28:11;;;;;;;;;;;22.20;53.50;;;;;;1583555;73;1683;-56
2022/10/12 10:30:18;;;;;;;;;;;22.20;53.50;;;;;;1582830;73;709;-54
2022/10/12 10:32:29;;;;;;;;;;;22.20;53.40;;;;;;1581493;73;808;-56
2022/10/12 10:34:27;;;;;;;;;;;22.20;53.40;;;;;;1576519;73;1478;-53
2022/10/12 10:36:29;;;;;;;;;;;22.00;53.30;;;;;;1578354;73;1211;-51
2022/10/12 10:38:32;;;;;;;;;;;22.10;53.40;;;;;;1579768;73;1935;-53
2022/10/12 10:40:34;;;;;;;;;;;22.10;53.30;;;;;;1574882;73;1556;-56
2022/10/12 10:42:36;;;;;;;;;;;22.10;53.20;;;;;;1582405;73;851;-54
2022/10/12 10:44:38;;;;;;;;;;;22.00;53.10;;;;;;1535092;75;799;-52
2022/10/12 10:46:39;;;;;;;;;;;22.00;53.10;;;;;;1516413;76;764;-54
2022/10/12 10:48:52;;;;;;;;;;;22.00;53.00;;;;;;1512638;77;720;-55
2022/10/12 10:50:55;;;;;;;;;;;22.00;53.00;;;;;;1516723;76;803;-56
2022/10/12 10:52:58;;;;;;;;;;;22.00;53.00;;;;;;1541894;75;710;-56
2022/10/12 10:55:18;;;;;;;;;;;22.00;53.00;;;;;;1514310;76;1501;-55
2022/10/12 10:57:20;;;;;;;;;;;22.00;52.90;;;;;;1516418;76;676;-55
2022/10/12 10:59:40;;;;;;;;;;;21.90;52.80;;;;;;1518578;77;1933;-56
2022/10/12 11:01:49;;;;;;;;;;;22.00;52.80;;;;;;1523540;76;749;-54
2022/10/12 11:03:53;;;;;;;;;;;21.90;52.80;;;;;;1533068;75;768;-53
2022/10/12 11:05:56;;;;;;;;;;;22.00;52.80;;;;;;1534173;75;1170;-53
2022/10/12 11:07:59;;;;;;;;;;;22.00;52.80;;;;;;1545984;75;1787;-55
2022/10/12 11:10:02;;;;;;;;;;;21.90;52.70;;;;;;1533182;75;1566;-55
2022/10/12 11:12:08;;;;;;;;;;;22.00;52.70;;;;;;1526190;76;814;-53
2022/10/12 11:14:14;;;;;;;;;;;21.90;52.70;;;;;;1525010;76;1809;-52
2022/10/12 11:16:18;;;;;;;;;;;21.90;52.70;;;;;;1546439;75;1139;-53
2022/10/12 11:18:30;;;;;;;;;;;21.90;52.70;;;;;;1534694;75;1879;-56
2022/10/12 11:20:43;;;;;;;;;;;21.90;52.70;;;;;;1517145;76;728;-53
2022/10/12 11:22:55;;;;;;;;;;;21.90;52.60;;;;;;1521141;76;1551;-56
2022/10/12 11:25:01;;;;;;;;;;;21.90;52.60;;;;;;1521855;76;1120;-54
2022/10/12 11:27:08;;;;;;;;;;;21.90;52.60;;;;;;1520396;76;1193;-55
2022/10/12 11:29:11;;;;;;;;;;;21.90;52.60;;;;;;1520499;76;900;-56
2022/10/12 11:31:21;;;;;;;;;;;21.90;52.60;;;;;;1515238;76;768;-57
2022/10/12 11:33:24;;;;;;;;;;;21.80;52.40;;;;;;1515725;76;1858;-56
2022/10/12 11:35:27;;;;;;;;;;;21.90;52.40;;;;;;1521694;76;1160;-56
2022/10/12 11:37:46;;;;;;;;;;;21.80;52.30;;;;;;1544986;75;1565;-56
2022/10/12 11:39:52;;;;;;;;;;;21.80;52.30;;;;;;1499394;77;1945;-56
2022/10/12 11:41:54;;;;;;;;;;;21.80;52.30;;;;;;1523815;76;765;-55
2022/10/12 11:43:57;;;;;;;;;;;21.90;52.40;;;;;;1528608;76;764;-56
2022/10/12 11:46:02;;;;;;;;;;;21.80;52.30;;;;;;1511541;76;2115;-56
2022/10/12 11:48:08;;;;;;;;;;;21.90;52.40;;;;;;1514254;76;746;-57
2022/10/12 11:50:15;;;;;;;;;;;21.90;52.30;;;;;;1529135;76;864;-56
2022/10/12 11:52:17;;;;;;;;;;;21.80;52.30;;;;;;1576883;73;1567;-56
2022/10/12 11:54:32;;;;;;;;;;;21.90;52.30;;;;;;1583166;73;803;-57
2022/10/12 11:56:39;;;;;;;;;;;21.80;52.20;;;;;;1563561;74;1069;-56
2022/10/12 11:58:42;;;;;;;;;;;21.90;52.30;;;;;;1578713;73;1934;-56
2022/10/12 12:01:02;;;;;;;;;;;21.80;52.20;;;;;;1569395;73;836;-56
2022/10/12 12:03:17;;;;;;;;;;;21.80;52.20;;;;;;1579678;73;695;-56
2022/10/12 12:05:19;;;;;;;;;;;21.80;52.10;;;;;;1576619;73;1672;-55
2022/10/12 12:07:38;;;;;;;;;;;21.80;52.10;;;;;;1582762;73;1051;-55
2022/10/12 12:09:41;;;;;;;;;;;21.80;52.10;;;;;;1588573;73;767;-57
2022/10/12 12:11:43;;;;;;;;;;;21.80;52.20;;;;;;1593340;73;1170;-56
2022/10/12 12:13:45;;;;;;;;;;;21.90;52.40;;;;;;1596936;73;738;-59